Flight Track Log - Related Links

Times and Time Zones

All times are in EDT time to prevent confusion due to time zone crossing. See the ADR704 flight status page for this flight to view local times or setup timezone preferences in your user account.

Time Position Orientation Groundspeed Altitude Reporting Facility
EDT Latitude Longitude Course Direction KTS MPH feet Rate Location/Type
Sat 07:49:00 AM 45.7689 15.0059 140° Southeast  Level Estimated
Sat 07:50:00 AM 45.6929 15.0965 140° Southeast  Level Estimated
Sat 07:51:00 AM 45.6167 15.1867 140° Southeast  Level Estimated
Sat 07:52:00 AM 45.5406 15.2768 140° Southeast  Level Estimated
Sat 07:53:00 AM 45.4643 15.3666 140° Southeast  Level Estimated
Sat 07:54:00 AM 45.3880 15.4561 141° Southeast  Level Estimated
Sat 07:55:00 AM 45.3116 15.5454 141° Southeast  Level Estimated
Sat 07:56:00 AM 45.2351 15.6344 141° Southeast  Level Estimated
Sat 07:57:00 AM 45.1586 15.7233 141° Southeast  Level Estimated
Sat 07:58:00 AM 45.0819 15.8118 141° Southeast  Level Estimated
Sat 07:59:00 AM 45.0053 15.9002 141° Southeast  Level Estimated
Sat 08:00:00 AM 44.9285 15.9883 141° Southeast  Level Estimated
Sat 08:01:00 AM 44.8517 16.0762 141° Southeast  Level Estimated
Sat 08:02:00 AM 44.7748 16.1638 141° Southeast  Level Estimated
Sat 08:03:00 AM 44.6979 16.2512 141° Southeast  Level Estimated
Sat 08:04:00 AM 44.6209 16.3384 141° Southeast  Level Estimated
Sat 08:05:00 AM 44.5438 16.4253 141° Southeast  Level Estimated
Sat 08:06:00 AM 44.4666 16.5120 141° Southeast  Level Estimated
Sat 08:07:00 AM 44.3894 16.5985 141° Southeast  Level Estimated
Sat 08:08:00 AM 44.3122 16.6848 141° Southeast  Level Estimated
Sat 08:09:00 AM 44.2348 16.7708 141° Southeast  Level Estimated
Sat 08:10:00 AM 44.1574 16.8566 141° Southeast  Level Estimated
Sat 08:11:00 AM 44.0800 16.9422 142° Southeast  Level Estimated
Sat 08:12:00 AM 44.0024 17.0275 142° Southeast  Level Estimated
Sat 08:13:00 AM 43.9248 17.1127 142° Southeast  Level Estimated
Sat 08:14:00 AM 43.8472 17.1976 142° Southeast  Level Estimated
Sat 08:15:00 AM 43.7695 17.2823 142° Southeast  Level Estimated
Sat 08:16:00 AM 43.6917 17.3667 142° Southeast  Level Estimated
Sat 08:17:00 AM 43.6138 17.4510 142° Southeast  Level Estimated
Sat 08:18:00 AM 43.5359 17.5350 142° Southeast  Level Estimated
Sat 08:19:00 AM 43.4580 17.6188 142° Southeast  Level Estimated
Sat 08:20:00 AM 43.3799 17.7024 142° Southeast  Level Estimated
Sat 08:21:00 AM 43.3018 17.7858 142° Southeast  Level Estimated
Sat 08:22:00 AM 43.2237 17.8690 142° Southeast  Level Estimated
Sat 08:23:00 AM 43.1455 17.9519 142° Southeast  Level Estimated
Sat 08:24:00 AM 43.0672 18.0347 142° Southeast  Level Estimated
Sat 08:25:00 AM 42.9889 18.1172 142° Southeast  Level Estimated
Sat 08:26:00 AM 42.9105 18.1995 142° Southeast  Level Estimated
Sat 08:27:00 AM 42.8320 18.2816 142° Southeast  Level Estimated
Sat 08:28:00 AM 42.7535 18.3636 143° Southeast  Level Estimated
Sat 08:29:00 AM 42.6750 18.4452 143° Southeast  Level Estimated
Sat 08:30:00 AM 42.5963 18.5267 143° Southeast  Level Estimated
Sat 08:31:00 AM 42.5177 18.6080 143° Southeast  Level Estimated
Sat 08:32:00 AM 42.4389 18.6891 143° Southeast  Level Estimated
Sat 08:33:00 AM 42.3601 18.7700 143° Southeast  Level Estimated
Sat 08:34:00 AM 42.2813 18.8507 143° Southeast  Level Estimated
Sat 08:35:00 AM 42.2024 18.9311 143° Southeast  Level Estimated
Sat 08:36:00 AM 42.1234 19.0114 143° Southeast  Level Estimated
Sat 08:37:00 AM 42.0444 19.0915 143° Southeast  Level Estimated
Sat 08:38:00 AM 41.9653 19.1714 143° Southeast  Level Estimated
Sat 08:39:00 AM 41.8862 19.2510 143° Southeast  Level Estimated
Sat 08:40:00 AM 41.8070 19.3305 143° Southeast  Level Estimated
Sat 08:41:00 AM 41.7278 19.4098 143° Southeast  Level Estimated
Sat 08:42:00 AM 41.6485 19.4889 143° Southeast  Level Estimated
Sat 08:43:00 AM 41.5691 19.5678 143° Southeast  Level Estimated
Sat 08:44:00 AM 41.4897 19.6465 143° Southeast  Level Estimated
Sat 08:45:00 AM 41.4147 19.7206 143° Southeast  Level Estimated
Sat 08:46:00 AM 41.4147 19.7206 21° North  Level Estimated
Sat 08:47:00 AM 41.4147 19.7206 21° North  Level Estimated
Sat 08:48:00 AM 41.4147 19.7206 21° North  Level Estimated

Login

Don't have an account? Register now (free) for customized features, flight alerts, and more!